Time;durP1;ratioP1;P1;durP2;ratioP2;P2;SDS_P1;SDS_P2;PMS_P1;PMS_P2;Temp;Humidity;BMP_temperature;BMP_pressure;BME280_temperature;BME280_humidity;BME280_pressure;Samples;Min_cycle;Max_cycle;Signal;HPM_P1;HPM_P2
2021/12/21 00:00:49;;;;;;;16.45;9.43;;;;;;;;;;5029188;28;20025;-81
2021/12/21 00:03:16;;;;;;;16.13;8.43;;;;;;;;;;5015982;28;20033;-77
2021/12/21 00:05:42;;;;;;;18.17;8.82;;;;;;;;;;5032598;28;20072;-81
2021/12/21 00:08:12;;;;;;;15.27;8.63;;;;;;;;;;5021552;28;20047;-81
2021/12/21 00:10:39;;;;;;;18.67;7.90;;;;;;;;;;5032511;28;20112;-79
2021/12/21 00:13:10;;;;;;;15.20;8.30;;;;;;;;;;5032444;28;20109;-81
2021/12/21 00:15:58;;;;;;;13.73;7.32;;;;;;;;;;5032327;28;20052;-80
2021/12/21 00:18:35;;;;;;;15.88;7.72;;;;;;;;;;5013871;28;20040;-80
2021/12/21 00:23:36;;;;;;;16.48;8.07;;;;;;;;;;5032689;28;20041;-81
2021/12/21 00:26:02;;;;;;;17.02;8.63;;;;;;;;;;5014573;28;20037;-79
2021/12/21 00:28:51;;;;;;;14.13;7.53;;;;;;;;;;5031894;28;20112;-81
2021/12/21 00:31:19;;;;;;;20.30;8.40;;;;;;;;;;5032291;28;20033;-80
2021/12/21 00:33:46;;;;;;;17.67;8.35;;;;;;;;;;5032108;28;20040;-78
2021/12/21 00:36:13;;;;;;;20.77;7.88;;;;;;;;;;5032176;28;20033;-78
2021/12/21 00:38:40;;;;;;;14.73;7.55;;;;;;;;;;5014490;28;20040;-80
2021/12/21 00:41:06;;;;;;;17.38;8.20;;;;;;;;;;5031265;28;20124;-77
2021/12/21 00:43:33;;;;;;;14.77;7.75;;;;;;;;;;5032273;28;20025;-80
2021/12/21 00:45:59;;;;;;;15.10;7.78;;;;;;;;;;5011569;28;20034;-79
2021/12/21 00:48:31;;;;;;;16.40;7.90;;;;;;;;;;5029086;28;20034;-77
2021/12/21 00:50:58;;;;;;;16.45;8.73;;;;;;;;;;5012823;28;20108;-81
2021/12/21 00:53:24;;;;;;;15.88;8.98;;;;;;;;;;5012476;28;20105;-78
2021/12/21 00:55:51;;;;;;;19.67;7.40;;;;;;;;;;5007775;28;20068;-80
2021/12/21 00:58:17;;;;;;;19.35;8.85;;;;;;;;;;5032197;28;20040;-79
2021/12/21 01:00:44;;;;;;;18.50;8.07;;;;;;;;;;5031627;28;20465;-79
2021/12/21 01:03:13;;;;;;;25.05;7.65;;;;;;;;;;5031868;28;20491;-79
2021/12/21 01:06:11;;;;;;;20.08;7.43;;;;;;;;;;5032159;28;20037;-78
2021/12/21 01:09:08;;;;;;;18.02;8.48;;;;;;;;;;5013306;28;20033;-81
2021/12/21 01:11:43;;;;;;;18.98;8.02;;;;;;;;;;5010625;28;20057;-80
2021/12/21 01:19:51;;;;;;;17.48;8.50;;;;;;;;;;5030252;28;20519;-78
2021/12/21 01:22:29;;;;;;;18.58;9.40;;;;;;;;;;5021657;28;20049;-79
2021/12/21 01:25:14;;;;;;;22.98;13.68;;;;;;;;;;5023869;28;20017;-80
2021/12/21 01:28:09;;;;;;;27.60;14.88;;;;;;;;;;5020891;28;20385;-82
2021/12/21 01:35:50;;;;;;;31.45;14.48;;;;;;;;;;5036956;28;20028;-78
2021/12/21 01:40:52;;;;;;;34.90;16.67;;;;;;;;;;5035889;28;20039;-78
2021/12/21 01:43:27;;;;;;;30.83;15.77;;;;;;;;;;5037172;28;20108;-79
2021/12/21 01:51:23;;;;;;;35.03;15.73;;;;;;;;;;5038019;28;20527;-80
2021/12/21 01:53:51;;;;;;;46.40;17.40;;;;;;;;;;5027835;28;20022;-79
2021/12/21 01:56:18;;;;;;;61.40;20.48;;;;;;;;;;5017542;28;20112;-80
2021/12/21 01:58:44;;;;;;;51.63;20.73;;;;;;;;;;5035256;28;20087;-79
2021/12/21 02:01:13;;;;;;;48.05;19.63;;;;;;;;;;5033518;28;20037;-80
2021/12/21 02:03:41;;;;;;;54.60;24.02;;;;;;;;;;5017137;28;20032;-77
2021/12/21 02:06:08;;;;;;;53.90;26.73;;;;;;;;;;5035233;28;20080;-80
2021/12/21 02:08:35;;;;;;;56.25;27.02;;;;;;;;;;5017521;28;20477;-80
2021/12/21 02:11:04;;;;;;;55.33;27.13;;;;;;;;;;5033905;28;20079;-76
2021/12/21 02:13:35;;;;;;;67.07;32.10;;;;;;;;;;5034597;28;20025;-80
2021/12/21 02:16:01;;;;;;;53.08;28.23;;;;;;;;;;5035536;28;20053;-80
2021/12/21 02:21:13;;;;;;;81.72;34.47;;;;;;;;;;5034019;28;20083;-80
2021/12/21 02:23:41;;;;;;;80.50;35.55;;;;;;;;;;5033712;28;20022;-79
2021/12/21 02:26:47;;;;;;;83.82;36.92;;;;;;;;;;5003145;28;20084;-78
2021/12/21 02:29:16;;;;;;;78.85;35.55;;;;;;;;;;5021715;28;20037;-80
2021/12/21 02:31:45;;;;;;;82.85;35.72;;;;;;;;;;5031153;28;20021;-79
2021/12/21 02:34:12;;;;;;;73.65;34.28;;;;;;;;;;5011135;28;20036;-81
2021/12/21 02:36:39;;;;;;;80.57;34.42;;;;;;;;;;5026284;28;20373;-77
2021/12/21 02:39:06;;;;;;;74.63;33.85;;;;;;;;;;5029197;28;20029;-81
2021/12/21 02:41:34;;;;;;;73.63;37.38;;;;;;;;;;5012894;28;20108;-80
2021/12/21 02:44:00;;;;;;;84.47;35.25;;;;;;;;;;5014016;28;20029;-81
2021/12/21 02:46:27;;;;;;;81.13;32.90;;;;;;;;;;5009565;28;20033;-79
2021/12/21 02:48:53;;;;;;;80.68;34.13;;;;;;;;;;5019949;28;20033;-81
2021/12/21 02:51:19;;;;;;;91.40;35.80;;;;;;;;;;5024867;28;20056;-82
2021/12/21 02:53:46;;;;;;;98.07;40.35;;;;;;;;;;5024806;28;20108;-80
2021/12/21 02:56:13;;;;;;;100.53;41.40;;;;;;;;;;5005860;28;20030;-78
2021/12/21 02:58:40;;;;;;;112.30;41.53;;;;;;;;;;5021987;28;20468;-80
2021/12/21 03:01:07;;;;;;;109.30;41.38;;;;;;;;;;5005073;28;20434;-79
2021/12/21 03:03:34;;;;;;;106.00;42.33;;;;;;;;;;5026217;28;20110;-83
2021/12/21 03:06:03;;;;;;;117.22;42.72;;;;;;;;;;5029795;28;20025;-81
2021/12/21 03:08:39;;;;;;;89.20;39.65;;;;;;;;;;5030995;28;20025;-79
2021/12/21 03:11:16;;;;;;;94.70;38.03;;;;;;;;;;5029794;28;20095;-79
2021/12/21 03:14:03;;;;;;;90.15;38.38;;;;;;;;;;5012419;28;20117;-79
2021/12/21 03:16:37;;;;;;;78.20;34.05;;;;;;;;;;5030781;28;20049;-81
2021/12/21 03:19:07;;;;;;;76.88;35.78;;;;;;;;;;4998688;28;20038;-79
2021/12/21 03:21:35;;;;;;;72.18;29.27;;;;;;;;;;5019950;28;20044;-81
2021/12/21 03:24:01;;;;;;;64.18;30.35;;;;;;;;;;5024625;28;20018;-78
2021/12/21 03:26:28;;;;;;;65.50;30.95;;;;;;;;;;5024077;28;20093;-80
2021/12/21 03:28:54;;;;;;;66.90;28.88;;;;;;;;;;5022863;28;20036;-81
2021/12/21 03:31:21;;;;;;;82.15;30.48;;;;;;;;;;5022306;28;20017;-83
2021/12/21 03:33:48;;;;;;;60.13;29.52;;;;;;;;;;5003841;28;20045;-82
2021/12/21 03:36:18;;;;;;;68.72;29.30;;;;;;;;;;5027060;28;20033;-82
2021/12/21 03:39:07;;;;;;;72.13;32.80;;;;;;;;;;5026632;28;20036;-81
2021/12/21 03:41:34;;;;;;;76.00;33.92;;;;;;;;;;5008096;28;20025;-82
2021/12/21 03:44:02;;;;;;;71.65;33.67;;;;;;;;;;5025092;28;20044;-80
2021/12/21 03:46:32;;;;;;;75.72;36.50;;;;;;;;;;5020748;28;20111;-83
2021/12/21 03:49:18;;;;;;;77.65;33.95;;;;;;;;;;5027041;28;20025;-82
2021/12/21 03:51:44;;;;;;;67.38;27.75;;;;;;;;;;4992144;28;20556;-82
2021/12/21 03:54:10;;;;;;;64.57;27.20;;;;;;;;;;5026078;28;20026;-82
2021/12/21 03:56:41;;;;;;;69.63;24.95;;;;;;;;;;5008831;28;20025;-81
2021/12/21 03:59:08;;;;;;;65.20;24.30;;;;;;;;;;5026579;28;20070;-82
2021/12/21 04:01:35;;;;;;;44.55;21.65;;;;;;;;;;4993782;28;20120;-80
2021/12/21 04:04:01;;;;;;;45.90;21.13;;;;;;;;;;5030049;28;20063;-80
2021/12/21 04:06:28;;;;;;;46.97;20.67;;;;;;;;;;5030418;28;20036;-79
2021/12/21 04:08:54;;;;;;;39.28;18.88;;;;;;;;;;5026177;28;20026;-80
2021/12/21 04:11:20;;;;;;;46.38;21.98;;;;;;;;;;5021145;28;20022;-81
2021/12/21 04:13:47;;;;;;;45.60;22.45;;;;;;;;;;5029651;28;20076;-83
2021/12/21 04:16:13;;;;;;;46.65;20.45;;;;;;;;;;5029362;28;20397;-79
2021/12/21 04:18:40;;;;;;;51.83;21.20;;;;;;;;;;5028693;28;20053;-81
2021/12/21 04:21:09;;;;;;;58.17;23.10;;;;;;;;;;5008422;28;20038;-81
2021/12/21 04:23:35;;;;;;;61.65;24.67;;;;;;;;;;5015494;28;20615;-80
2021/12/21 04:26:02;;;;;;;74.15;33.33;;;;;;;;;;5029644;28;20040;-79
2021/12/21 04:28:28;;;;;;;102.30;39.30;;;;;;;;;;5012460;28;20040;-80
2021/12/21 04:30:54;;;;;;;80.95;39.30;;;;;;;;;;5011574;28;20087;-82
2021/12/21 04:33:21;;;;;;;89.05;39.10;;;;;;;;;;5026460;28;20488;-81
2021/12/21 04:35:47;;;;;;;71.85;27.25;;;;;;;;;;5025298;28;20055;-82
2021/12/21 04:38:26;;;;;;;86.57;30.52;;;;;;;;;;5008037;28;20038;-84
2021/12/21 04:40:57;;;;;;;46.38;20.17;;;;;;;;;;5025402;28;20022;-85
2021/12/21 04:43:24;;;;;;;52.05;20.80;;;;;;;;;;5028990;28;20026;-80
2021/12/21 04:45:51;;;;;;;44.67;19.85;;;;;;;;;;5005309;28;20579;-81
2021/12/21 04:48:17;;;;;;;34.58;16.33;;;;;;;;;;5031800;28;20030;-85
2021/12/21 04:50:44;;;;;;;35.83;15.38;;;;;;;;;;5030009;28;20563;-80
2021/12/21 04:53:10;;;;;;;27.73;12.25;;;;;;;;;;5029461;28;20480;-81
2021/12/21 04:55:37;;;;;;;31.23;15.07;;;;;;;;;;5026089;28;20017;-82
2021/12/21 04:58:05;;;;;;;24.35;12.57;;;;;;;;;;5026972;28;20037;-83
2021/12/21 05:00:32;;;;;;;16.35;9.30;;;;;;;;;;5023787;28;20036;-83
2021/12/21 05:02:58;;;;;;;16.45;8.18;;;;;;;;;;5028786;28;20082;-82
2021/12/21 05:05:24;;;;;;;16.95;6.95;;;;;;;;;;5011786;28;20210;-84
2021/12/21 05:08:04;;;;;;;18.27;6.68;;;;;;;;;;5009965;28;20095;-82
2021/12/21 05:10:31;;;;;;;13.88;6.18;;;;;;;;;;5026260;28;20113;-81
2021/12/21 05:13:01;;;;;;;21.48;7.25;;;;;;;;;;5022358;28;20026;-81
2021/12/21 05:15:27;;;;;;;16.77;6.72;;;;;;;;;;5009887;28;20138;-81
2021/12/21 05:17:53;;;;;;;17.75;6.70;;;;;;;;;;5028377;28;20477;-82
2021/12/21 05:20:20;;;;;;;16.83;7.60;;;;;;;;;;5028195;28;20500;-80
2021/12/21 05:22:48;;;;;;;19.98;7.82;;;;;;;;;;5023237;28;20116;-84
2021/12/21 05:25:15;;;;;;;23.40;8.60;;;;;;;;;;5008679;28;20388;-82
2021/12/21 05:27:41;;;;;;;16.40;8.82;;;;;;;;;;5025475;28;20022;-84
2021/12/21 05:30:08;;;;;;;18.48;8.88;;;;;;;;;;5029576;28;20144;-83
2021/12/21 05:32:34;;;;;;;21.60;11.70;;;;;;;;;;5033699;28;20044;-83
2021/12/21 05:35:00;;;;;;;15.95;9.07;;;;;;;;;;5029735;28;20045;-83
2021/12/21 05:37:27;;;;;;;11.27;4.72;;;;;;;;;;5011086;28;20029;-82
2021/12/21 05:40:08;;;;;;;9.13;4.28;;;;;;;;;;5030305;28;20118;-85
2021/12/21 05:42:34;;;;;;;10.30;5.05;;;;;;;;;;5007973;28;20037;-82
2021/12/21 05:45:01;;;;;;;13.95;5.43;;;;;;;;;;5035018;28;20057;-83
2021/12/21 05:47:28;;;;;;;15.70;5.72;;;;;;;;;;5030832;28;20120;-83
2021/12/21 05:49:55;;;;;;;17.30;8.70;;;;;;;;;;5035478;28;20077;-85
2021/12/21 05:52:21;;;;;;;18.10;8.18;;;;;;;;;;5014946;28;20373;-84
2021/12/21 05:54:49;;;;;;;15.73;7.20;;;;;;;;;;5030515;28;20112;-83
2021/12/21 05:57:15;;;;;;;16.17;7.93;;;;;;;;;;5024881;28;20035;-82
2021/12/21 05:59:42;;;;;;;12.93;7.50;;;;;;;;;;5022087;28;20041;-85
2021/12/21 06:02:09;;;;;;;15.25;8.43;;;;;;;;;;5038487;28;20048;-82
2021/12/21 06:04:35;;;;;;;16.15;9.27;;;;;;;;;;5035441;28;20029;-84
2021/12/21 06:07:02;;;;;;;16.52;8.40;;;;;;;;;;5034729;28;20033;-86
2021/12/21 06:09:30;;;;;;;14.85;8.57;;;;;;;;;;5030536;28;20458;-86
2021/12/21 06:22:52;;;;;;;23.70;10.90;;;;;;;;;;5026696;28;20092;-83
2021/12/21 06:25:35;;;;;;;23.55;11.40;;;;;;;;;;5030129;28;20022;-82
2021/12/21 06:28:02;;;;;;;25.63;12.55;;;;;;;;;;5031531;28;20423;-83
2021/12/21 06:30:29;;;;;;;24.83;12.70;;;;;;;;;;5028054;28;20025;-85
2021/12/21 06:32:55;;;;;;;30.50;12.75;;;;;;;;;;5010823;28;20488;-83
2021/12/21 06:35:22;;;;;;;20.35;8.48;;;;;;;;;;5029358;28;20038;-84
2021/12/21 06:37:49;;;;;;;27.17;9.07;;;;;;;;;;5012738;28;20037;-82
2021/12/21 06:40:15;;;;;;;21.60;10.10;;;;;;;;;;5011188;28;20036;-85
2021/12/21 06:42:43;;;;;;;18.63;9.90;;;;;;;;;;5012733;28;20047;-84
2021/12/21 06:45:23;;;;;;;20.35;10.45;;;;;;;;;;5034377;28;20039;-85
2021/12/21 06:53:20;;;;;;;11.85;6.82;;;;;;;;;;5029783;28;20090;-85
2021/12/21 06:55:47;;;;;;;16.92;7.35;;;;;;;;;;5028616;28;20026;-83
2021/12/21 06:58:13;;;;;;;12.18;7.30;;;;;;;;;;5027419;28;20029;-82
2021/12/21 07:00:40;;;;;;;13.23;7.18;;;;;;;;;;5034331;28;20152;-84
2021/12/21 07:03:06;;;;;;;11.95;5.28;;;;;;;;;;5029584;28;20029;-82
2021/12/21 07:05:43;;;;;;;15.43;6.00;;;;;;;;;;5031950;28;20022;-84
2021/12/21 07:08:14;;;;;;;8.77;5.68;;;;;;;;;;5036187;28;20029;-84
2021/12/21 07:10:41;;;;;;;14.65;6.72;;;;;;;;;;5026942;28;20021;-82
2021/12/21 07:18:38;;;;;;;16.67;7.50;;;;;;;;;;5030710;28;20558;-85
2021/12/21 07:21:04;;;;;;;15.65;8.02;;;;;;;;;;5008552;28;20469;-83
2021/12/21 07:23:31;;;;;;;18.50;8.50;;;;;;;;;;5027200;28;20546;-82
2021/12/21 07:25:57;;;;;;;11.55;7.50;;;;;;;;;;5023958;28;20038;-82
2021/12/21 07:28:23;;;;;;;15.55;7.53;;;;;;;;;;5013477;28;20061;-82
2021/12/21 07:30:50;;;;;;;14.27;7.78;;;;;;;;;;5026941;28;20025;-83
2021/12/21 07:33:18;;;;;;;16.08;8.13;;;;;;;;;;5025051;28;20028;-82
2021/12/21 07:35:44;;;;;;;17.70;8.05;;;;;;;;;;5020791;28;20033;-84
2021/12/21 07:38:11;;;;;;;23.73;13.10;;;;;;;;;;5017080;28;20474;-82
2021/12/21 07:40:39;;;;;;;12.68;7.88;;;;;;;;;;4989173;28;20488;-83
2021/12/21 07:43:05;;;;;;;15.43;7.30;;;;;;;;;;5009826;28;20479;-85
2021/12/21 07:45:32;;;;;;;23.05;6.85;;;;;;;;;;5010589;28;20108;-84
2021/12/21 07:47:58;;;;;;;14.15;6.50;;;;;;;;;;5013785;28;20041;-82
2021/12/21 07:50:29;;;;;;;13.10;6.82;;;;;;;;;;5028458;28;20037;-85
2021/12/21 07:52:57;;;;;;;17.33;6.88;;;;;;;;;;5028908;28;20084;-82
2021/12/21 07:55:23;;;;;;;11.85;5.07;;;;;;;;;;5025853;28;20021;-83
2021/12/21 07:57:50;;;;;;;13.48;5.22;;;;;;;;;;5025583;28;20380;-84
2021/12/21 08:00:17;;;;;;;9.30;4.50;;;;;;;;;;5031398;28;20029;-84
2021/12/21 08:02:43;;;;;;;12.05;6.50;;;;;;;;;;5011059;28;20048;-84
2021/12/21 08:05:12;;;;;;;11.95;5.43;;;;;;;;;;5027751;28;20038;-83
2021/12/21 08:07:47;;;;;;;11.93;4.72;;;;;;;;;;5027040;28;20036;-83
2021/12/21 08:10:22;;;;;;;11.57;4.50;;;;;;;;;;5011824;28;20059;-84
2021/12/21 08:12:49;;;;;;;8.10;3.97;;;;;;;;;;5030308;28;20392;-84
2021/12/21 08:15:15;;;;;;;7.13;3.95;;;;;;;;;;5027323;28;20022;-84
2021/12/21 08:17:42;;;;;;;14.65;4.85;;;;;;;;;;5030193;28;20046;-83
2021/12/21 08:20:08;;;;;;;10.25;5.32;;;;;;;;;;5011921;28;20025;-85
2021/12/21 08:22:35;;;;;;;8.65;4.18;;;;;;;;;;5004106;28;20037;-83
2021/12/21 08:25:01;;;;;;;7.00;3.42;;;;;;;;;;5030394;28;20040;-84
2021/12/21 08:27:28;;;;;;;14.23;3.78;;;;;;;;;;5011790;28;20032;-84
2021/12/21 08:29:54;;;;;;;9.40;4.05;;;;;;;;;;5025663;28;20057;-81
2021/12/21 08:32:20;;;;;;;8.65;4.10;;;;;;;;;;5028839;28;20014;-84
2021/12/21 08:34:47;;;;;;;7.72;3.63;;;;;;;;;;5026829;28;20048;-83
2021/12/21 08:37:13;;;;;;;10.40;3.30;;;;;;;;;;5024414;28;20074;-83
2021/12/21 08:39:40;;;;;;;9.48;4.45;;;;;;;;;;5003385;28;20025;-83
2021/12/21 08:42:08;;;;;;;9.40;4.63;;;;;;;;;;5023721;28;20025;-84
2021/12/21 08:44:35;;;;;;;8.27;3.20;;;;;;;;;;5027974;28;20030;-83
2021/12/21 08:47:02;;;;;;;11.55;4.55;;;;;;;;;;5031207;28;20119;-83
2021/12/21 08:49:30;;;;;;;14.23;5.30;;;;;;;;;;5017677;28;20032;-83
2021/12/21 08:51:56;;;;;;;12.15;4.43;;;;;;;;;;5028551;28;20044;-82
2021/12/21 08:54:24;;;;;;;11.85;4.03;;;;;;;;;;5023234;28;20071;-84
2021/12/21 08:56:50;;;;;;;11.20;4.10;;;;;;;;;;5024901;28;20067;-83
2021/12/21 08:59:19;;;;;;;10.80;3.55;;;;;;;;;;5032724;28;20094;-83
2021/12/21 09:01:54;;;;;;;10.27;4.28;;;;;;;;;;5007892;28;20034;-83
2021/12/21 09:04:22;;;;;;;11.63;4.07;;;;;;;;;;5014768;28;20029;-83
2021/12/21 09:06:48;;;;;;;11.07;4.07;;;;;;;;;;5027585;28;20025;-82
2021/12/21 09:09:14;;;;;;;15.15;4.47;;;;;;;;;;5031289;28;20037;-82
2021/12/21 09:11:45;;;;;;;8.50;4.40;;;;;;;;;;5031542;28;20018;-82
2021/12/21 09:14:12;;;;;;;8.77;4.63;;;;;;;;;;5027191;28;20487;-82
2021/12/21 09:16:38;;;;;;;16.33;6.95;;;;;;;;;;5029425;28;20050;-82
2021/12/21 09:19:06;;;;;;;16.92;5.93;;;;;;;;;;5024784;28;20034;-84
2021/12/21 09:21:32;;;;;;;9.85;4.43;;;;;;;;;;5027064;28;20116;-83
2021/12/21 09:23:59;;;;;;;14.70;5.28;;;;;;;;;;5028588;28;20097;-82
2021/12/21 09:26:25;;;;;;;13.60;5.28;;;;;;;;;;5028762;28;20243;-82
2021/12/21 09:28:52;;;;;;;17.13;5.43;;;;;;;;;;5027903;28;20445;-83
2021/12/21 09:31:18;;;;;;;16.83;4.63;;;;;;;;;;5007393;28;20469;-83
2021/12/21 09:33:44;;;;;;;12.43;4.63;;;;;;;;;;5028078;28;20029;-82
2021/12/21 09:36:11;;;;;;;9.07;4.85;;;;;;;;;;5014306;28;20388;-82
2021/12/21 09:38:37;;;;;;;7.72;4.38;;;;;;;;;;5029227;28;20026;-83
2021/12/21 09:41:05;;;;;;;11.82;5.10;;;;;;;;;;5029017;28;20036;-82
2021/12/21 09:43:31;;;;;;;15.85;5.38;;;;;;;;;;5032720;28;20037;-81
2021/12/21 09:45:58;;;;;;;14.65;5.05;;;;;;;;;;5019710;28;20037;-83
2021/12/21 09:48:28;;;;;;;14.85;6.07;;;;;;;;;;5015413;28;20025;-83
2021/12/21 09:50:55;;;;;;;14.13;5.05;;;;;;;;;;5008455;28;20272;-83
2021/12/21 09:53:22;;;;;;;12.63;4.68;;;;;;;;;;5028773;28;20427;-83
2021/12/21 09:55:49;;;;;;;9.43;5.00;;;;;;;;;;5031358;28;20476;-83
2021/12/21 09:58:16;;;;;;;13.48;6.20;;;;;;;;;;5030532;28;20029;-83
2021/12/21 10:00:42;;;;;;;18.95;7.28;;;;;;;;;;5011627;28;20025;-83
2021/12/21 10:03:10;;;;;;;17.48;7.88;;;;;;;;;;5022949;28;20048;-81
2021/12/21 10:05:38;;;;;;;19.83;7.78;;;;;;;;;;5025165;28;20401;-83
2021/12/21 10:08:04;;;;;;;17.15;9.00;;;;;;;;;;5027401;28;20032;-83
2021/12/21 10:10:35;;;;;;;13.63;7.50;;;;;;;;;;5027513;28;20030;-84
2021/12/21 10:13:12;;;;;;;17.00;9.45;;;;;;;;;;5010194;28;20033;-83
2021/12/21 10:15:43;;;;;;;17.98;7.68;;;;;;;;;;5008138;28;20480;-83
2021/12/21 10:18:10;;;;;;;14.45;7.63;;;;;;;;;;5031309;28;20029;-83
2021/12/21 10:20:40;;;;;;;19.52;9.15;;;;;;;;;;5025772;28;20423;-83
2021/12/21 10:23:20;;;;;;;19.75;8.07;;;;;;;;;;5023330;28;20556;-82
2021/12/21 10:25:49;;;;;;;17.20;9.63;;;;;;;;;;5031893;28;20060;-82
2021/12/21 10:28:34;;;;;;;17.75;8.93;;;;;;;;;;5025682;28;20084;-82
2021/12/21 10:31:02;;;;;;;18.70;10.32;;;;;;;;;;5011354;28;20021;-83
2021/12/21 10:33:29;;;;;;;19.05;11.23;;;;;;;;;;5029135;28;20027;-81
2021/12/21 10:36:00;;;;;;;24.27;12.77;;;;;;;;;;5027027;28;20033;-83
2021/12/21 10:38:31;;;;;;;17.05;10.85;;;;;;;;;;5024773;28;20029;-84
2021/12/21 10:41:16;;;;;;;20.55;9.05;;;;;;;;;;5023548;28;20021;-83
2021/12/21 10:43:42;;;;;;;22.63;11.82;;;;;;;;;;5003559;28;20595;-84
2021/12/21 10:46:09;;;;;;;18.95;9.50;;;;;;;;;;5023683;28;20111;-84
2021/12/21 10:48:37;;;;;;;19.98;9.82;;;;;;;;;;5019569;28;20025;-84
2021/12/21 10:51:14;;;;;;;16.90;8.40;;;;;;;;;;5021691;28;20032;-82
2021/12/21 10:53:45;;;;;;;19.73;9.55;;;;;;;;;;5006591;28;20029;-84
2021/12/21 10:56:12;;;;;;;18.77;8.77;;;;;;;;;;5018537;28;20032;-82
2021/12/21 10:58:45;;;;;;;21.25;9.30;;;;;;;;;;5030244;28;20488;-83
2021/12/21 11:01:15;;;;;;;18.27;8.68;;;;;;;;;;5013276;28;20056;-83
2021/12/21 11:03:50;;;;;;;15.52;7.45;;;;;;;;;;5028240;28;20034;-82
2021/12/21 11:06:18;;;;;;;17.40;8.60;;;;;;;;;;5030736;28;20096;-82
2021/12/21 11:08:46;;;;;;;16.92;7.30;;;;;;;;;;5010762;28;20080;-81
2021/12/21 11:11:32;;;;;;;19.85;10.90;;;;;;;;;;5033109;28;20022;-81
2021/12/21 11:14:04;;;;;;;23.02;11.05;;;;;;;;;;5027524;28;20376;-83
2021/12/21 11:16:38;;;;;;;24.85;11.40;;;;;;;;;;5028523;28;20060;-83
2021/12/21 11:19:05;;;;;;;20.98;11.15;;;;;;;;;;5029128;28;20036;-83
2021/12/21 11:21:33;;;;;;;22.20;11.35;;;;;;;;;;5028386;28;20042;-83
2021/12/21 11:24:11;;;;;;;24.65;11.80;;;;;;;;;;5010884;28;20040;-80
2021/12/21 11:26:38;;;;;;;28.60;15.02;;;;;;;;;;5030687;28;20029;-85
2021/12/21 11:29:06;;;;;;;40.42;17.05;;;;;;;;;;5032330;28;20122;-84
2021/12/21 11:31:36;;;;;;;45.22;20.33;;;;;;;;;;5032531;28;20018;-85
2021/12/21 11:34:02;;;;;;;40.33;19.70;;;;;;;;;;5028949;28;20017;-84
2021/12/21 11:39:14;;;;;;;58.30;23.70;;;;;;;;;;5030619;28;20187;-85
2021/12/21 11:41:42;;;;;;;51.88;23.13;;;;;;;;;;5008357;28;20026;-84
2021/12/21 11:44:12;;;;;;;43.00;21.55;;;;;;;;;;5024878;28;20064;-84
2021/12/21 11:46:50;;;;;;;44.42;18.73;;;;;;;;;;5027140;28;20500;-86
2021/12/21 11:49:19;;;;;;;33.60;17.25;;;;;;;;;;5033410;28;20025;-85
2021/12/21 11:51:46;;;;;;;31.50;16.58;;;;;;;;;;5013828;28;20116;-86
2021/12/21 11:54:17;;;;;;;30.65;15.48;;;;;;;;;;5027823;28;20245;-84
2021/12/21 11:56:44;;;;;;;28.77;15.32;;;;;;;;;;5025865;28;20021;-83
2021/12/21 11:59:10;;;;;;;33.08;17.05;;;;;;;;;;5024716;28;20423;-84
2021/12/21 12:01:36;;;;;;;32.83;15.98;;;;;;;;;;5004952;28;20040;-84
2021/12/21 12:04:05;;;;;;;34.47;15.93;;;;;;;;;;5023131;28;20561;-83
2021/12/21 12:06:43;;;;;;;38.00;17.90;;;;;;;;;;5008035;28;20070;-82
2021/12/21 12:09:10;;;;;;;35.13;17.33;;;;;;;;;;5021991;28;20029;-83
2021/12/21 12:11:39;;;;;;;29.08;17.13;;;;;;;;;;5024569;28;20032;-83
2021/12/21 12:14:05;;;;;;;32.05;17.02;;;;;;;;;;5026049;28;20055;-81
2021/12/21 12:16:52;;;;;;;30.48;17.92;;;;;;;;;;5005284;28;20057;-84
2021/12/21 12:19:20;;;;;;;31.33;19.02;;;;;;;;;;5022317;28;20030;-83
2021/12/21 12:21:55;;;;;;;30.88;17.88;;;;;;;;;;5023958;28;20070;-81
2021/12/21 12:24:22;;;;;;;32.42;17.25;;;;;;;;;;5010062;28;20025;-83
2021/12/21 12:26:56;;;;;;;33.72;18.00;;;;;;;;;;5013410;28;20029;-82
2021/12/21 12:29:23;;;;;;;32.25;17.65;;;;;;;;;;5027417;28;20030;-84
2021/12/21 12:32:06;;;;;;;34.92;19.98;;;;;;;;;;5032913;28;20101;-82
2021/12/21 12:34:34;;;;;;;35.85;20.63;;;;;;;;;;5012944;28;20661;-82
2021/12/21 12:37:01;;;;;;;34.17;21.23;;;;;;;;;;5021653;28;20064;-82
2021/12/21 12:39:29;;;;;;;42.53;20.60;;;;;;;;;;5023009;28;20049;-81
2021/12/21 12:42:01;;;;;;;43.22;19.55;;;;;;;;;;5010961;28;20037;-85
2021/12/21 12:44:28;;;;;;;32.15;17.83;;;;;;;;;;5021271;28;20029;-81
2021/12/21 12:46:56;;;;;;;28.20;15.65;;;;;;;;;;5026811;28;20022;-82
2021/12/21 12:49:27;;;;;;;32.17;16.40;;;;;;;;;;5003694;28;20434;-81
2021/12/21 12:52:02;;;;;;;38.05;13.60;;;;;;;;;;5028501;28;20017;-83
2021/12/21 12:54:29;;;;;;;30.90;13.52;;;;;;;;;;5028879;28;20021;-82
2021/12/21 12:56:55;;;;;;;34.47;12.63;;;;;;;;;;5029872;28;20480;-83
2021/12/21 12:59:21;;;;;;;29.70;13.57;;;;;;;;;;5029588;28;20069;-81
2021/12/21 13:01:49;;;;;;;24.98;12.27;;;;;;;;;;5029499;28;20038;-83
2021/12/21 13:04:16;;;;;;;26.23;12.35;;;;;;;;;;5022691;28;20029;-82
2021/12/21 13:06:46;;;;;;;24.35;11.57;;;;;;;;;;5022118;28;20492;-83
2021/12/21 13:09:14;;;;;;;19.88;11.70;;;;;;;;;;5012368;28;20030;-83
2021/12/21 13:11:41;;;;;;;22.67;12.77;;;;;;;;;;5012286;28;20419;-83
2021/12/21 13:14:09;;;;;;;31.48;12.23;;;;;;;;;;5028406;28;20025;-84
2021/12/21 13:16:37;;;;;;;26.58;11.57;;;;;;;;;;5029972;28;20045;-82
2021/12/21 13:19:11;;;;;;;21.58;12.55;;;;;;;;;;5027920;28;20086;-84
2021/12/21 13:21:47;;;;;;;28.60;13.20;;;;;;;;;;5031231;28;20028;-84
2021/12/21 13:24:18;;;;;;;21.55;12.27;;;;;;;;;;5011371;28;20027;-83
2021/12/21 13:26:50;;;;;;;23.67;11.88;;;;;;;;;;5006689;28;20033;-83
2021/12/21 13:29:18;;;;;;;24.85;13.10;;;;;;;;;;5011114;28;20021;-83
2021/12/21 13:31:47;;;;;;;24.52;12.65;;;;;;;;;;5028220;28;20029;-83
2021/12/21 13:34:13;;;;;;;24.58;13.57;;;;;;;;;;5030301;28;20423;-81
2021/12/21 13:36:45;;;;;;;17.88;10.93;;;;;;;;;;5032782;28;20045;-81
2021/12/21 13:39:15;;;;;;;17.52;9.38;;;;;;;;;;5026434;28;20126;-82
2021/12/21 13:41:46;;;;;;;16.80;9.13;;;;;;;;;;5009736;28;20036;-82
2021/12/21 13:44:15;;;;;;;25.98;9.02;;;;;;;;;;5015917;28;20088;-83
2021/12/21 13:46:42;;;;;;;19.65;7.72;;;;;;;;;;5026006;28;20057;-81
2021/12/21 13:49:08;;;;;;;17.60;7.05;;;;;;;;;;5013642;28;20025;-81
2021/12/21 13:51:34;;;;;;;74.47;13.45;;;;;;;;;;5022764;28;20029;-83
2021/12/21 13:54:01;;;;;;;17.02;6.90;;;;;;;;;;5026011;28;20108;-82
2021/12/21 13:56:29;;;;;;;19.67;7.78;;;;;;;;;;5016549;28;20476;-84
2021/12/21 13:58:56;;;;;;;16.05;6.88;;;;;;;;;;5027046;28;20038;-84
2021/12/21 14:01:24;;;;;;;26.63;8.13;;;;;;;;;;5007903;28;20113;-83
2021/12/21 14:03:54;;;;;;;17.88;7.30;;;;;;;;;;5027985;28;20025;-83
2021/12/21 14:06:22;;;;;;;18.90;8.48;;;;;;;;;;5028907;28;20036;-81
2021/12/21 14:08:49;;;;;;;17.13;8.40;;;;;;;;;;5025562;28;20120;-83
2021/12/21 14:11:16;;;;;;;18.98;8.50;;;;;;;;;;5025317;28;20111;-84
2021/12/21 14:13:44;;;;;;;18.23;7.38;;;;;;;;;;5012587;28;20030;-83
2021/12/21 14:16:11;;;;;;;16.80;6.57;;;;;;;;;;5010834;28;20029;-83
2021/12/21 14:18:38;;;;;;;15.73;6.93;;;;;;;;;;5012853;28;20032;-82
2021/12/21 14:21:14;;;;;;;16.95;7.57;;;;;;;;;;5025205;28;20022;-83
2021/12/21 14:23:41;;;;;;;14.10;7.20;;;;;;;;;;5005472;28;20045;-82
2021/12/21 14:26:13;;;;;;;22.73;7.13;;;;;;;;;;5009065;28;20025;-84
2021/12/21 14:28:53;;;;;;;14.70;7.53;;;;;;;;;;5013228;28;20032;-83
2021/12/21 14:31:22;;;;;;;19.75;7.10;;;;;;;;;;5009920;28;20072;-83
2021/12/21 14:33:50;;;;;;;14.35;7.22;;;;;;;;;;5032729;28;20110;-82
2021/12/21 14:36:18;;;;;;;19.90;8.05;;;;;;;;;;5027430;28;20090;-82
2021/12/21 14:38:58;;;;;;;23.45;8.57;;;;;;;;;;5023673;28;20033;-81
2021/12/21 14:41:35;;;;;;;17.45;8.23;;;;;;;;;;5030301;28;20432;-81
2021/12/21 14:44:10;;;;;;;17.77;9.15;;;;;;;;;;5033200;28;20033;-81
2021/12/21 14:46:38;;;;;;;13.05;6.72;;;;;;;;;;5027373;28;20030;-82
2021/12/21 14:49:09;;;;;;;28.58;8.57;;;;;;;;;;5036358;28;20112;-81
2021/12/21 14:51:57;;;;;;;17.58;7.07;;;;;;;;;;5014766;28;20555;-80
2021/12/21 14:54:26;;;;;;;14.15;6.32;;;;;;;;;;5009299;28;20048;-82
2021/12/21 14:57:01;;;;;;;16.13;6.57;;;;;;;;;;5019004;28;20030;-81
2021/12/21 14:59:32;;;;;;;17.67;6.28;;;;;;;;;;5011508;28;20053;-80
2021/12/21 15:02:05;;;;;;;25.25;6.97;;;;;;;;;;5013123;28;20030;-81
2021/12/21 15:04:33;;;;;;;20.50;6.72;;;;;;;;;;5036113;28;20028;-82
2021/12/21 15:07:01;;;;;;;14.55;6.30;;;;;;;;;;5015939;28;20138;-81
2021/12/21 15:09:28;;;;;;;13.50;5.85;;;;;;;;;;5031626;28;20093;-81
2021/12/21 15:11:55;;;;;;;15.77;6.05;;;;;;;;;;5027140;28;20472;-82
2021/12/21 15:14:22;;;;;;;15.02;6.18;;;;;;;;;;5017631;28;20369;-81
2021/12/21 15:16:49;;;;;;;14.70;6.00;;;;;;;;;;5029010;28;20046;-81
2021/12/21 15:19:15;;;;;;;14.90;5.28;;;;;;;;;;5014462;28;20025;-82
2021/12/21 15:21:42;;;;;;;16.13;5.28;;;;;;;;;;5031722;28;20056;-82
2021/12/21 15:24:08;;;;;;;10.18;4.80;;;;;;;;;;5033357;28;20063;-82